Tuesday, August 30, 2016, 5:01 AM EDT

KEZF, Fredericksburg, Shannon Airport

Location: Fredericksburg, VA, United States Lat: 38.267
Local Time: 5:01 AM EDT ( 9:01 GMT) Lon: -77.45
Time Zone: US/Eastern Elev: 85 ft

Show me the last for .
Show Decoded

2016-08-30 04:35 METAR KEZF 300835Z AUTO 00000KT 10SM CLR 23/23 A3010 RMK AO2 T02260226 =
2016-08-30 04:15 METAR KEZF 300815Z AUTO 00000KT 10SM CLR 23/23 A3009 RMK AO2 T02250225 =
2016-08-30 03:55 METAR KEZF 300755Z AUTO 00000KT 10SM SCT049 22/22 A3009 RMK AO2 T02220222 =
2016-08-30 03:35 METAR KEZF 300735Z AUTO 00000KT 10SM SCT047 SCT055 23/23 A3009 RMK AO2 T02310231
                 =
2016-08-30 03:15 METAR KEZF 300715Z AUTO 00000KT 10SM BKN047 BKN055 23/23 A3010 RMK AO2 T02310231
                 =
2016-08-30 02:55 METAR KEZF 300655Z AUTO 00000KT 10SM SCT049 23/23 A3010 RMK AO2 T02250225 =
2016-08-30 02:35 METAR KEZF 300635Z AUTO 00000KT 10SM SCT049 23/23 A3009 RMK AO2 T02280228 =
2016-08-30 02:15 METAR KEZF 300615Z AUTO 00000KT 10SM CLR 22/22 A3009 RMK AO2 T02220222 =
2016-08-30 01:55 METAR KEZF 300555Z AUTO 00000KT 10SM CLR 23/23 A3009 RMK AO2 T02270227 10279
                 20226 403320190 =
2016-08-30 01:35 METAR KEZF 300535Z AUTO 00000KT 10SM SCT055 23/23 A3009 RMK AO2 T02270227 =
2016-08-30 01:15 METAR KEZF 300515Z AUTO 00000KT 10SM SCT055 23/23 A3009 RMK AO2 T02310231 =
2016-08-30 00:55 METAR KEZF 300455Z AUTO 00000KT 10SM CLR 23/23 A3009 RMK AO2 T02320232 =
2016-08-30 00:35 METAR KEZF 300435Z AUTO 00000KT 10SM CLR 23/23 A3009 RMK AO2 T02320232 =
2016-08-30 00:15 METAR KEZF 300415Z AUTO 00000KT 10SM CLR 24/24 A3010 RMK AO2 T02370237 =
2016-08-29 23:55 METAR KEZF 300355Z AUTO 00000KT 10SM CLR 24/22 A3010 RMK AO2 T02360224 =
2016-08-29 23:35 METAR KEZF 300335Z AUTO 00000KT 10SM CLR 24/22 A3011 RMK AO2 T02390224 =
2016-08-29 23:15 METAR KEZF 300315Z AUTO 00000KT 10SM CLR 24/22 A3010 RMK AO2 T02400221 =
2016-08-29 22:55 METAR KEZF 300255Z AUTO 00000KT 10SM CLR 24/22 A3010 RMK AO2 T02420224 =
2016-08-29 22:35 METAR KEZF 300235Z AUTO 00000KT 10SM CLR 24/22 A3010 RMK AO2 T02410221 =
2016-08-29 22:15 METAR KEZF 300215Z AUTO 00000KT 10SM CLR 25/22 A3010 RMK AO2 T02490222 =
2016-08-29 21:55 METAR KEZF 300155Z AUTO 00000KT 10SM CLR 25/22 A3010 RMK AO2 T02510222 =
2016-08-29 21:35 METAR KEZF 300135Z AUTO 00000KT 10SM CLR 26/23 A3010 RMK AO2 T02550225 =
2016-08-29 21:15 METAR KEZF 300115Z AUTO 00000KT 10SM CLR 26/22 A3010 RMK AO2 T02620224 =
2016-08-29 20:55 METAR KEZF 300055Z AUTO 00000KT 10SM 27/23 A3009 RMK AO2 T02660225 =
2016-08-29 20:35 METAR KEZF 300035Z AUTO 00000KT 10SM 27/23 A3009 RMK AO2 T02670226 =
2016-08-29 20:15 METAR KEZF 300015Z AUTO 00000KT 10SM 28/23 A3008 RMK AO2 T02750227 =
2016-08-29 19:55 METAR KEZF 292355Z AUTO 00000KT 10SM 28/23 A3008 RMK AO2 T02810228 10332 20281 =
2016-08-29 19:35 METAR KEZF 292335Z AUTO 00000KT 10SM 29/23 A3007 RMK AO2 T02900225 =
2016-08-29 19:15 METAR KEZF 292315Z AUTO 17004KT 10SM 30/23 A3007 RMK AO2 T02970225 =
2016-08-29 18:55 METAR KEZF 292255Z AUTO 15005KT 10SM 31/23 A3006 RMK AO2 T03050231 =
2016-08-29 18:35 METAR KEZF 292235Z AUTO 10003KT 10SM 32/21 A3006 RMK AO2 T03210210 =
2016-08-29 18:15 METAR KEZF 292215Z AUTO 00000KT 10SM 32/20 A3007 RMK AO2 T03220200 =
2016-08-29 17:55 METAR KEZF 292155Z AUTO 00000KT 10SM 33/20 A3007 RMK AO2 T03250196 =
2016-08-29 17:35 METAR KEZF 292135Z AUTO 00000KT 10SM 33/19 A3007 RMK AO2 T03270192 =
2016-08-29 17:15 METAR KEZF 292115Z AUTO 34005KT 10SM 33/20 A3007 RMK AO2 T03280196 =
2016-08-29 16:55 METAR KEZF 292055Z AUTO 02005KT 10SM 33/21 A3007 RMK AO2 T03260205 =
2016-08-29 16:35 METAR KEZF 292035Z AUTO 05005KT 10SM 33/21 A3008 RMK AO2 T03310207 =
2016-08-29 16:15 METAR KEZF 292015Z AUTO 08004KT 10SM 33/21 A3008 RMK AO2 T03280207 =
2016-08-29 15:55 METAR KEZF 291955Z AUTO 05007KT 10SM 33/20 A3009 RMK AO2 T03250201 =
2016-08-29 15:35 METAR KEZF 291935Z AUTO 00000KT 10SM 33/20 A3010 RMK AO2 T03270202 =
2016-08-29 15:15 METAR KEZF 291915Z AUTO 06003KT 10SM 33/20 A3011 RMK AO2 T03260197 =
2016-08-29 14:55 METAR KEZF 291855Z AUTO 07003KT 10SM 33/20 A3012 RMK AO2 T03250196 =
2016-08-29 14:35 METAR KEZF 291835Z AUTO 00000KT 10SM 32/20 A3012 RMK AO2 T03200196 =
2016-08-29 14:15 METAR KEZF 291815Z AUTO 00000KT 10SM 32/20 A3013 RMK AO2 T03190195 =
2016-08-29 13:55 METAR KEZF 291755Z AUTO 10006KT 10SM 32/20 A3014 RMK AO2 T03180196 10318 20205 =
2016-08-29 13:35 METAR KEZF 291735Z AUTO 09005KT 10SM 32/20 A3014 RMK AO2 T03150197 =
2016-08-29 13:15 METAR KEZF 291715Z AUTO 08003KT 10SM 31/21 A3015 RMK AO2 T03120205 =
2016-08-29 12:55 METAR KEZF 291655Z AUTO 00000KT 10SM 31/20 A3015 RMK AO2 T03130201 =
2016-08-29 12:35 METAR KEZF 291635Z AUTO 09005KT 10SM 31/19 A3015 RMK AO2 T03080189 =
2016-08-29 12:15 METAR KEZF 291615Z AUTO 00000KT 10SM 31/20 A3015 RMK AO2 T03060198 =
2016-08-29 11:55 METAR KEZF 291555Z AUTO 14003KT 10SM 30/20 A3016 RMK AO2 T03020200 =
2016-08-29 11:35 METAR KEZF 291535Z AUTO 00000KT 10SM 30/20 A3016 RMK AO2 T02950204 =
2016-08-29 11:15 METAR KEZF 291515Z AUTO 00000KT 10SM CLR 29/21 A3017 RMK AO2 T02910205 =
2016-08-29 10:55 METAR KEZF 291455Z AUTO 05003KT 10SM CLR 29/21 A3017 RMK AO2 T02880206 =
2016-08-29 10:35 METAR KEZF 291435Z AUTO 34003KT 10SM CLR 28/21 A3017 RMK AO2 T02800209 =
2016-08-29 10:15 METAR KEZF 291415Z AUTO 02003KT 10SM CLR 27/21 A3017 RMK AO2 T02740209 =
2016-08-29 09:55 METAR KEZF 291355Z AUTO 00000KT 10SM CLR 27/22 A3017 RMK AO2 T02700215 =
2016-08-29 09:35 METAR KEZF 291335Z AUTO 36005KT 10SM CLR 26/22 A3017 RMK AO2 T02570215 =
2016-08-29 09:15 METAR KEZF 291315Z AUTO 00000KT 10SM CLR 25/21 A3017 RMK AO2 T02480214 =
2016-08-29 08:50 METAR KEZF 291250Z AUTO 00000KT 10SM CLR 24/22 A3017 RMK AO2 T02360217 =
2016-08-29 08:35 METAR KEZF 291235Z AUTO 34003KT 10SM CLR 23/22 A3017 RMK AO2 T02270222 =
2016-08-29 08:15 METAR KEZF 291215Z AUTO 00000KT 10SM CLR 22/22 A3016 RMK AO2 T02150215 =
2016-08-29 07:55 METAR KEZF 291155Z AUTO 00000KT 10SM CLR 20/20 A3015 RMK AO2 T02040204 10204
                 20190 =
2016-08-29 07:35 METAR KEZF 291135Z AUTO 00000KT 10SM CLR 20/20 A3016 RMK AO2 T01970197 =
2016-08-29 07:15 METAR KEZF 291115Z AUTO 00000KT 10SM CLR 20/20 A3015 RMK AO2 T01980198 =
2016-08-29 06:55 METAR KEZF 291055Z AUTO 00000KT 10SM CLR 20/20 A3015 RMK AO2 T01950195 =
2016-08-29 06:35 METAR KEZF 291035Z AUTO 00000KT 10SM CLR 19/19 A3014 RMK AO2 T01920192 =
2016-08-29 06:15 METAR KEZF 291015Z AUTO 00000KT 10SM CLR 20/20 A3014 RMK AO2 T01950195 =
2016-08-29 05:55 METAR KEZF 290955Z AUTO 00000KT 10SM CLR 20/20 A3013 RMK AO2 T01970197 =
2016-08-29 05:35 METAR KEZF 290935Z AUTO 00000KT 10SM CLR 19/19 A3013 RMK AO2 T01910191 =
2016-08-29 05:15 METAR KEZF 290915Z AUTO 00000KT 10SM CLR 20/20 A3013 RMK AO2 T01950195 =

Support USWX by starting your Amazon purchase here.